sensor_id;sensor_type;location;lat;lon;timestamp;P1;durP1;ratioP1;P2;durP2;ratioP2
42770;SDS011;28426;42.872;25.314;2023-07-02T00:00:37;12.23;;;8.40;;
42770;SDS011;28426;42.872;25.314;2023-07-02T00:03:08;10.88;;;8.85;;
42770;SDS011;28426;42.872;25.314;2023-07-02T00:05:39;10.38;;;8.23;;
42770;SDS011;28426;42.872;25.314;2023-07-02T00:08:12;10.38;;;8.45;;
42770;SDS011;28426;42.872;25.314;2023-07-02T00:10:43;9.98;;;8.35;;
42770;SDS011;28426;42.872;25.314;2023-07-02T00:13:14;12.50;;;8.45;;
42770;SDS011;28426;42.872;25.314;2023-07-02T00:15:45;10.48;;;8.95;;
42770;SDS011;28426;42.872;25.314;2023-07-02T00:18:16;9.10;;;8.20;;
42770;SDS011;28426;42.872;25.314;2023-07-02T00:20:47;9.73;;;8.60;;
42770;SDS011;28426;42.872;25.314;2023-07-02T00:23:20;13.40;;;8.48;;
42770;SDS011;28426;42.872;25.314;2023-07-02T00:25:51;11.18;;;8.77;;
42770;SDS011;28426;42.872;25.314;2023-07-02T00:28:22;10.93;;;8.07;;
42770;SDS011;28426;42.872;25.314;2023-07-02T00:30:54;10.52;;;8.20;;
42770;SDS011;28426;42.872;25.314;2023-07-02T00:33:25;9.10;;;8.13;;
42770;SDS011;28426;42.872;25.314;2023-07-02T00:35:56;8.93;;;7.95;;
42770;SDS011;28426;42.872;25.314;2023-07-02T00:38:30;14.48;;;9.00;;
42770;SDS011;28426;42.872;25.314;2023-07-02T00:41:01;9.02;;;8.02;;
42770;SDS011;28426;42.872;25.314;2023-07-02T00:43:35;11.57;;;8.45;;
42770;SDS011;28426;42.872;25.314;2023-07-02T00:46:06;10.18;;;8.05;;
42770;SDS011;28426;42.872;25.314;2023-07-02T00:48:38;9.52;;;8.13;;
42770;SDS011;28426;42.872;25.314;2023-07-02T00:51:10;11.95;;;8.73;;
42770;SDS011;28426;42.872;25.314;2023-07-02T00:53:47;10.88;;;8.02;;
42770;SDS011;28426;42.872;25.314;2023-07-02T00:56:19;8.90;;;7.93;;
42770;SDS011;28426;42.872;25.314;2023-07-02T00:58:51;9.73;;;7.88;;
42770;SDS011;28426;42.872;25.314;2023-07-02T01:01:27;11.70;;;8.32;;
42770;SDS011;28426;42.872;25.314;2023-07-02T01:04:01;10.98;;;8.35;;
42770;SDS011;28426;42.872;25.314;2023-07-02T01:06:35;13.05;;;8.90;;
42770;SDS011;28426;42.872;25.314;2023-07-02T01:09:11;10.20;;;7.63;;
42770;SDS011;28426;42.872;25.314;2023-07-02T01:11:43;11.18;;;8.60;;
42770;SDS011;28426;42.872;25.314;2023-07-02T01:14:19;9.32;;;8.05;;
42770;SDS011;28426;42.872;25.314;2023-07-02T01:16:54;9.85;;;8.68;;
42770;SDS011;28426;42.872;25.314;2023-07-02T01:19:35;9.57;;;7.97;;
42770;SDS011;28426;42.872;25.314;2023-07-02T01:22:12;11.27;;;7.97;;
42770;SDS011;28426;42.872;25.314;2023-07-02T01:24:43;8.30;;;7.35;;
42770;SDS011;28426;42.872;25.314;2023-07-02T01:27:16;15.23;;;8.10;;
42770;SDS011;28426;42.872;25.314;2023-07-02T01:29:50;9.13;;;7.10;;
42770;SDS011;28426;42.872;25.314;2023-07-02T01:32:22;16.70;;;8.07;;
42770;SDS011;28426;42.872;25.314;2023-07-02T01:34:55;10.10;;;7.28;;
42770;SDS011;28426;42.872;25.314;2023-07-02T01:37:29;11.05;;;6.72;;
42770;SDS011;28426;42.872;25.314;2023-07-02T01:40:07;8.45;;;5.63;;
42770;SDS011;28426;42.872;25.314;2023-07-02T01:42:38;8.55;;;5.43;;
42770;SDS011;28426;42.872;25.314;2023-07-02T01:45:09;7.32;;;5.20;;
42770;SDS011;28426;42.872;25.314;2023-07-02T01:47:40;5.97;;;4.90;;
42770;SDS011;28426;42.872;25.314;2023-07-02T01:50:14;8.95;;;5.40;;
42770;SDS011;28426;42.872;25.314;2023-07-02T01:52:45;7.47;;;5.18;;
42770;SDS011;28426;42.872;25.314;2023-07-02T01:55:16;7.35;;;5.22;;
42770;SDS011;28426;42.872;25.314;2023-07-02T01:57:47;6.93;;;4.95;;
42770;SDS011;28426;42.872;25.314;2023-07-02T02:00:18;8.55;;;5.38;;
42770;SDS011;28426;42.872;25.314;2023-07-02T02:02:49;6.82;;;5.32;;
42770;SDS011;28426;42.872;25.314;2023-07-02T02:05:23;8.10;;;4.82;;
42770;SDS011;28426;42.872;25.314;2023-07-02T02:07:54;8.45;;;5.30;;
42770;SDS011;28426;42.872;25.314;2023-07-02T02:10:24;6.45;;;4.90;;
42770;SDS011;28426;42.872;25.314;2023-07-02T02:12:56;6.53;;;5.03;;
42770;SDS011;28426;42.872;25.314;2023-07-02T02:15:27;6.93;;;5.20;;
42770;SDS011;28426;42.872;25.314;2023-07-02T02:17:58;8.15;;;4.80;;
42770;SDS011;28426;42.872;25.314;2023-07-02T02:20:32;8.65;;;5.05;;
42770;SDS011;28426;42.872;25.314;2023-07-02T02:23:03;6.72;;;5.18;;
42770;SDS011;28426;42.872;25.314;2023-07-02T02:25:33;7.93;;;5.28;;
42770;SDS011;28426;42.872;25.314;2023-07-02T02:28:04;7.78;;;5.57;;
42770;SDS011;28426;42.872;25.314;2023-07-02T02:30:35;12.38;;;6.13;;
42770;SDS011;28426;42.872;25.314;2023-07-02T02:33:06;7.38;;;5.55;;
42770;SDS011;28426;42.872;25.314;2023-07-02T02:35:40;8.52;;;5.18;;
42770;SDS011;28426;42.872;25.314;2023-07-02T02:38:12;9.60;;;6.10;;
42770;SDS011;28426;42.872;25.314;2023-07-02T02:40:43;6.90;;;6.10;;
42770;SDS011;28426;42.872;25.314;2023-07-02T02:43:18;8.55;;;5.88;;
42770;SDS011;28426;42.872;25.314;2023-07-02T02:45:50;9.68;;;6.30;;
42770;SDS011;28426;42.872;25.314;2023-07-02T02:48:21;11.63;;;6.28;;
42770;SDS011;28426;42.872;25.314;2023-07-02T02:50:55;9.85;;;6.25;;
42770;SDS011;28426;42.872;25.314;2023-07-02T02:53:26;7.27;;;6.37;;
42770;SDS011;28426;42.872;25.314;2023-07-02T02:55:57;7.47;;;6.47;;
42770;SDS011;28426;42.872;25.314;2023-07-02T02:58:28;9.57;;;6.70;;
42770;SDS011;28426;42.872;25.314;2023-07-02T03:00:59;7.70;;;6.53;;
42770;SDS011;28426;42.872;25.314;2023-07-02T03:03:38;7.78;;;6.00;;
42770;SDS011;28426;42.872;25.314;2023-07-02T03:06:16;10.13;;;6.45;;
42770;SDS011;28426;42.872;25.314;2023-07-02T03:08:46;12.18;;;6.68;;
42770;SDS011;28426;42.872;25.314;2023-07-02T03:11:17;10.68;;;7.13;;
42770;SDS011;28426;42.872;25.314;2023-07-02T03:13:48;7.97;;;6.20;;
42770;SDS011;28426;42.872;25.314;2023-07-02T03:16:19;8.68;;;6.57;;
42770;SDS011;28426;42.872;25.314;2023-07-02T03:18:51;8.13;;;6.40;;
42770;SDS011;28426;42.872;25.314;2023-07-02T03:21:24;10.65;;;6.50;;
42770;SDS011;28426;42.872;25.314;2023-07-02T03:26:27;11.23;;;6.20;;
42770;SDS011;28426;42.872;25.314;2023-07-02T03:28:58;8.65;;;6.53;;
42770;SDS011;28426;42.872;25.314;2023-07-02T03:31:29;11.55;;;6.07;;
42770;SDS011;28426;42.872;25.314;2023-07-02T03:34:01;8.40;;;6.05;;
42770;SDS011;28426;42.872;25.314;2023-07-02T03:36:36;11.98;;;5.93;;
42770;SDS011;28426;42.872;25.314;2023-07-02T03:39:07;8.15;;;6.10;;
42770;SDS011;28426;42.872;25.314;2023-07-02T03:41:38;11.70;;;6.43;;
42770;SDS011;28426;42.872;25.314;2023-07-02T03:44:09;10.27;;;6.55;;
42770;SDS011;28426;42.872;25.314;2023-07-02T03:46:40;11.10;;;6.68;;
42770;SDS011;28426;42.872;25.314;2023-07-02T03:49:11;11.38;;;6.40;;
42770;SDS011;28426;42.872;25.314;2023-07-02T03:51:44;9.02;;;6.07;;
42770;SDS011;28426;42.872;25.314;2023-07-02T03:54:15;8.45;;;6.03;;
42770;SDS011;28426;42.872;25.314;2023-07-02T03:56:46;9.85;;;5.95;;
42770;SDS011;28426;42.872;25.314;2023-07-02T03:59:17;8.38;;;5.75;;
42770;SDS011;28426;42.872;25.314;2023-07-02T04:01:48;9.70;;;6.18;;
42770;SDS011;28426;42.872;25.314;2023-07-02T04:04:19;9.85;;;5.85;;
42770;SDS011;28426;42.872;25.314;2023-07-02T04:06:52;10.90;;;5.75;;
42770;SDS011;28426;42.872;25.314;2023-07-02T04:09:23;10.48;;;5.70;;
42770;SDS011;28426;42.872;25.314;2023-07-02T04:11:54;9.05;;;5.75;;
42770;SDS011;28426;42.872;25.314;2023-07-02T04:14:25;9.52;;;5.85;;
42770;SDS011;28426;42.872;25.314;2023-07-02T04:16:55;8.30;;;5.78;;
42770;SDS011;28426;42.872;25.314;2023-07-02T04:19:26;7.57;;;5.38;;
42770;SDS011;28426;42.872;25.314;2023-07-02T04:22:00;8.65;;;5.45;;
42770;SDS011;28426;42.872;25.314;2023-07-02T04:24:30;11.40;;;8.05;;
42770;SDS011;28426;42.872;25.314;2023-07-02T04:27:02;9.80;;;5.82;;
42770;SDS011;28426;42.872;25.314;2023-07-02T04:29:53;8.90;;;5.63;;
42770;SDS011;28426;42.872;25.314;2023-07-02T04:32:24;9.45;;;5.88;;
42770;SDS011;28426;42.872;25.314;2023-07-02T04:34:55;9.93;;;5.82;;
42770;SDS011;28426;42.872;25.314;2023-07-02T04:37:29;10.00;;;6.20;;
42770;SDS011;28426;42.872;25.314;2023-07-02T04:40:00;8.73;;;5.35;;
42770;SDS011;28426;42.872;25.314;2023-07-02T04:42:34;9.13;;;6.38;;
42770;SDS011;28426;42.872;25.314;2023-07-02T04:45:05;9.45;;;5.45;;
42770;SDS011;28426;42.872;25.314;2023-07-02T04:47:37;10.35;;;6.18;;
42770;SDS011;28426;42.872;25.314;2023-07-02T04:50:09;8.90;;;5.70;;
42770;SDS011;28426;42.872;25.314;2023-07-02T04:52:42;8.20;;;5.25;;
42770;SDS011;28426;42.872;25.314;2023-07-02T04:55:13;9.98;;;5.90;;
42770;SDS011;28426;42.872;25.314;2023-07-02T04:57:45;8.18;;;5.35;;
42770;SDS011;28426;42.872;25.314;2023-07-02T05:00:17;8.30;;;4.75;;
42770;SDS011;28426;42.872;25.314;2023-07-02T05:02:49;11.70;;;5.60;;
42770;SDS011;28426;42.872;25.314;2023-07-02T05:05:20;12.98;;;5.63;;
42770;SDS011;28426;42.872;25.314;2023-07-02T05:07:54;9.15;;;5.50;;
42770;SDS011;28426;42.872;25.314;2023-07-02T05:10:25;7.47;;;4.93;;
42770;SDS011;28426;42.872;25.314;2023-07-02T05:12:56;9.27;;;5.18;;
42770;SDS011;28426;42.872;25.314;2023-07-02T05:15:27;9.88;;;5.97;;
42770;SDS011;28426;42.872;25.314;2023-07-02T05:17:58;9.57;;;5.57;;
42770;SDS011;28426;42.872;25.314;2023-07-02T05:20:29;8.32;;;5.75;;
42770;SDS011;28426;42.872;25.314;2023-07-02T05:23:02;11.60;;;5.60;;
42770;SDS011;28426;42.872;25.314;2023-07-02T05:25:33;11.70;;;5.60;;
42770;SDS011;28426;42.872;25.314;2023-07-02T05:28:04;9.68;;;5.53;;
42770;SDS011;28426;42.872;25.314;2023-07-02T05:30:35;10.18;;;6.40;;
42770;SDS011;28426;42.872;25.314;2023-07-02T05:33:06;6.60;;;5.18;;
42770;SDS011;28426;42.872;25.314;2023-07-02T05:35:36;12.20;;;5.80;;
42770;SDS011;28426;42.872;25.314;2023-07-02T05:38:10;11.50;;;6.00;;
42770;SDS011;28426;42.872;25.314;2023-07-02T05:40:41;9.10;;;5.15;;
42770;SDS011;28426;42.872;25.314;2023-07-02T05:43:12;7.82;;;5.53;;
42770;SDS011;28426;42.872;25.314;2023-07-02T05:45:43;9.30;;;5.30;;
42770;SDS011;28426;42.872;25.314;2023-07-02T05:48:14;8.15;;;5.68;;
42770;SDS011;28426;42.872;25.314;2023-07-02T05:50:44;8.43;;;5.93;;
42770;SDS011;28426;42.872;25.314;2023-07-02T05:53:19;9.80;;;5.80;;
42770;SDS011;28426;42.872;25.314;2023-07-02T05:55:50;9.32;;;5.57;;
42770;SDS011;28426;42.872;25.314;2023-07-02T05:58:21;8.80;;;6.00;;
42770;SDS011;28426;42.872;25.314;2023-07-02T06:01:09;8.40;;;5.90;;
42770;SDS011;28426;42.872;25.314;2023-07-02T06:03:40;9.35;;;5.90;;
42770;SDS011;28426;42.872;25.314;2023-07-02T06:06:12;7.55;;;5.38;;
42770;SDS011;28426;42.872;25.314;2023-07-02T06:08:46;7.70;;;5.32;;
42770;SDS011;28426;42.872;25.314;2023-07-02T06:11:17;8.98;;;5.20;;
42770;SDS011;28426;42.872;25.314;2023-07-02T06:13:48;12.38;;;5.80;;
42770;SDS011;28426;42.872;25.314;2023-07-02T06:16:19;8.50;;;5.75;;
42770;SDS011;28426;42.872;25.314;2023-07-02T06:18:50;8.65;;;5.57;;
42770;SDS011;28426;42.872;25.314;2023-07-02T06:21:21;9.88;;;5.07;;
42770;SDS011;28426;42.872;25.314;2023-07-02T06:24:00;7.60;;;5.43;;
42770;SDS011;28426;42.872;25.314;2023-07-02T06:26:32;8.30;;;5.15;;
42770;SDS011;28426;42.872;25.314;2023-07-02T06:29:02;7.00;;;5.00;;
42770;SDS011;28426;42.872;25.314;2023-07-02T06:31:33;8.55;;;5.28;;
42770;SDS011;28426;42.872;25.314;2023-07-02T06:34:04;11.20;;;5.68;;
42770;SDS011;28426;42.872;25.314;2023-07-02T06:36:36;9.65;;;5.63;;
42770;SDS011;28426;42.872;25.314;2023-07-02T06:39:09;9.73;;;5.85;;
42770;SDS011;28426;42.872;25.314;2023-07-02T06:41:40;6.22;;;5.15;;
42770;SDS011;28426;42.872;25.314;2023-07-02T06:44:11;9.75;;;5.47;;
42770;SDS011;28426;42.872;25.314;2023-07-02T06:46:42;9.52;;;5.15;;
42770;SDS011;28426;42.872;25.314;2023-07-02T06:49:15;9.88;;;5.60;;
42770;SDS011;28426;42.872;25.314;2023-07-02T06:51:46;10.88;;;6.25;;
42770;SDS011;28426;42.872;25.314;2023-07-02T06:54:20;10.23;;;5.60;;
42770;SDS011;28426;42.872;25.314;2023-07-02T06:56:50;11.88;;;6.30;;
42770;SDS011;28426;42.872;25.314;2023-07-02T06:59:21;10.80;;;6.03;;
42770;SDS011;28426;42.872;25.314;2023-07-02T07:01:53;13.52;;;5.82;;
42770;SDS011;28426;42.872;25.314;2023-07-02T07:04:23;8.30;;;5.40;;
42770;SDS011;28426;42.872;25.314;2023-07-02T07:06:55;12.80;;;6.15;;
42770;SDS011;28426;42.872;25.314;2023-07-02T07:09:29;11.90;;;6.82;;
42770;SDS011;28426;42.872;25.314;2023-07-02T07:12:00;12.43;;;5.55;;
42770;SDS011;28426;42.872;25.314;2023-07-02T07:14:31;9.18;;;5.40;;
42770;SDS011;28426;42.872;25.314;2023-07-02T07:17:01;10.55;;;6.00;;
42770;SDS011;28426;42.872;25.314;2023-07-02T07:19:32;8.63;;;5.95;;
42770;SDS011;28426;42.872;25.314;2023-07-02T07:22:04;8.20;;;6.07;;
42770;SDS011;28426;42.872;25.314;2023-07-02T07:24:37;7.43;;;5.78;;
42770;SDS011;28426;42.872;25.314;2023-07-02T07:27:08;11.15;;;7.20;;
42770;SDS011;28426;42.872;25.314;2023-07-02T07:29:39;10.00;;;7.22;;
42770;SDS011;28426;42.872;25.314;2023-07-02T07:32:10;10.18;;;6.75;;
42770;SDS011;28426;42.872;25.314;2023-07-02T07:34:40;16.20;;;12.43;;
42770;SDS011;28426;42.872;25.314;2023-07-02T07:37:11;9.68;;;7.53;;
42770;SDS011;28426;42.872;25.314;2023-07-02T07:39:45;11.85;;;8.45;;
42770;SDS011;28426;42.872;25.314;2023-07-02T07:42:16;12.40;;;7.63;;
42770;SDS011;28426;42.872;25.314;2023-07-02T07:44:46;11.48;;;7.65;;
42770;SDS011;28426;42.872;25.314;2023-07-02T07:47:17;10.32;;;7.55;;
42770;SDS011;28426;42.872;25.314;2023-07-02T07:49:48;9.23;;;6.32;;
42770;SDS011;28426;42.872;25.314;2023-07-02T07:52:19;9.00;;;6.82;;
42770;SDS011;28426;42.872;25.314;2023-07-02T07:54:53;8.77;;;7.00;;
42770;SDS011;28426;42.872;25.314;2023-07-02T07:57:24;12.68;;;7.63;;
42770;SDS011;28426;42.872;25.314;2023-07-02T07:59:55;12.95;;;6.82;;
42770;SDS011;28426;42.872;25.314;2023-07-02T08:02:26;10.20;;;7.30;;
42770;SDS011;28426;42.872;25.314;2023-07-02T08:04:57;9.95;;;7.05;;
42770;SDS011;28426;42.872;25.314;2023-07-02T08:07:27;9.30;;;6.93;;
42770;SDS011;28426;42.872;25.314;2023-07-02T08:10:01;13.43;;;8.73;;
42770;SDS011;28426;42.872;25.314;2023-07-02T08:12:32;10.40;;;7.70;;
42770;SDS011;28426;42.872;25.314;2023-07-02T08:15:03;10.15;;;8.02;;
42770;SDS011;28426;42.872;25.314;2023-07-02T08:17:35;11.45;;;8.10;;
42770;SDS011;28426;42.872;25.314;2023-07-02T08:20:06;12.57;;;8.65;;
42770;SDS011;28426;42.872;25.314;2023-07-02T08:22:39;10.57;;;7.75;;
42770;SDS011;28426;42.872;25.314;2023-07-02T08:25:12;8.73;;;6.75;;
42770;SDS011;28426;42.872;25.314;2023-07-02T08:27:45;9.77;;;6.63;;
42770;SDS011;28426;42.872;25.314;2023-07-02T08:30:16;8.73;;;6.28;;
42770;SDS011;28426;42.872;25.314;2023-07-02T08:32:47;10.88;;;6.25;;
42770;SDS011;28426;42.872;25.314;2023-07-02T08:35:20;9.30;;;6.25;;
42770;SDS011;28426;42.872;25.314;2023-07-02T08:37:50;8.52;;;6.75;;
42770;SDS011;28426;42.872;25.314;2023-07-02T08:40:24;7.38;;;5.70;;
42770;SDS011;28426;42.872;25.314;2023-07-02T08:42:56;8.73;;;7.13;;
42770;SDS011;28426;42.872;25.314;2023-07-02T08:45:28;8.90;;;6.63;;
42770;SDS011;28426;42.872;25.314;2023-07-02T08:48:00;10.15;;;6.70;;
42770;SDS011;28426;42.872;25.314;2023-07-02T08:50:31;11.68;;;7.13;;
42770;SDS011;28426;42.872;25.314;2023-07-02T08:53:01;9.82;;;6.40;;
42770;SDS011;28426;42.872;25.314;2023-07-02T08:55:35;10.07;;;6.65;;
42770;SDS011;28426;42.872;25.314;2023-07-02T08:58:07;10.80;;;6.72;;
42770;SDS011;28426;42.872;25.314;2023-07-02T09:00:38;8.32;;;6.30;;
42770;SDS011;28426;42.872;25.314;2023-07-02T09:03:12;11.82;;;6.95;;
42770;SDS011;28426;42.872;25.314;2023-07-02T09:05:48;8.27;;;6.57;;
42770;SDS011;28426;42.872;25.314;2023-07-02T09:08:23;8.85;;;6.22;;
42770;SDS011;28426;42.872;25.314;2023-07-02T09:10:57;9.10;;;6.50;;
42770;SDS011;28426;42.872;25.314;2023-07-02T09:13:45;7.35;;;6.10;;
42770;SDS011;28426;42.872;25.314;2023-07-02T09:16:24;8.80;;;6.00;;
42770;SDS011;28426;42.872;25.314;2023-07-02T09:18:57;13.23;;;6.10;;
42770;SDS011;28426;42.872;25.314;2023-07-02T09:21:38;10.35;;;6.20;;
42770;SDS011;28426;42.872;25.314;2023-07-02T09:24:13;11.95;;;6.72;;
42770;SDS011;28426;42.872;25.314;2023-07-02T09:29:21;10.48;;;6.50;;
42770;SDS011;28426;42.872;25.314;2023-07-02T09:31:54;8.35;;;6.30;;
42770;SDS011;28426;42.872;25.314;2023-07-02T09:34:36;10.60;;;6.20;;
42770;SDS011;28426;42.872;25.314;2023-07-02T09:37:09;9.63;;;6.57;;
42770;SDS011;28426;42.872;25.314;2023-07-02T09:39:41;9.27;;;6.50;;
42770;SDS011;28426;42.872;25.314;2023-07-02T09:42:15;8.50;;;5.95;;
42770;SDS011;28426;42.872;25.314;2023-07-02T09:47:18;8.88;;;5.78;;
42770;SDS011;28426;42.872;25.314;2023-07-02T09:49:53;11.50;;;5.72;;
42770;SDS011;28426;42.872;25.314;2023-07-02T09:52:25;10.07;;;5.97;;
42770;SDS011;28426;42.872;25.314;2023-07-02T09:54:56;9.77;;;6.10;;
42770;SDS011;28426;42.872;25.314;2023-07-02T09:57:34;13.38;;;6.40;;
42770;SDS011;28426;42.872;25.314;2023-07-02T10:00:05;9.27;;;5.90;;
42770;SDS011;28426;42.872;25.314;2023-07-02T10:02:38;10.38;;;5.70;;
42770;SDS011;28426;42.872;25.314;2023-07-02T10:05:09;10.20;;;5.97;;
42770;SDS011;28426;42.872;25.314;2023-07-02T10:07:40;9.15;;;5.95;;
42770;SDS011;28426;42.872;25.314;2023-07-02T10:10:11;8.50;;;5.78;;
42770;SDS011;28426;42.872;25.314;2023-07-02T10:15:24;7.43;;;5.68;;
42770;SDS011;28426;42.872;25.314;2023-07-02T10:17:56;11.20;;;6.35;;
42770;SDS011;28426;42.872;25.314;2023-07-02T10:20:31;8.65;;;5.57;;
42770;SDS011;28426;42.872;25.314;2023-07-02T10:23:04;7.90;;;5.47;;
42770;SDS011;28426;42.872;25.314;2023-07-02T10:25:36;9.45;;;5.97;;
42770;SDS011;28426;42.872;25.314;2023-07-02T10:28:16;7.63;;;5.57;;
42770;SDS011;28426;42.872;25.314;2023-07-02T10:30:49;11.68;;;6.93;;
42770;SDS011;28426;42.872;25.314;2023-07-02T10:33:21;8.05;;;5.53;;
42770;SDS011;28426;42.872;25.314;2023-07-02T10:35:52;9.45;;;6.45;;
42770;SDS011;28426;42.872;25.314;2023-07-02T10:38:23;8.25;;;5.90;;
42770;SDS011;28426;42.872;25.314;2023-07-02T10:40:55;10.43;;;6.28;;
42770;SDS011;28426;42.872;25.314;2023-07-02T10:43:29;8.82;;;5.60;;
42770;SDS011;28426;42.872;25.314;2023-07-02T10:48:32;8.52;;;5.60;;
42770;SDS011;28426;42.872;25.314;2023-07-02T10:51:10;11.05;;;6.20;;
42770;SDS011;28426;42.872;25.314;2023-07-02T10:53:42;8.77;;;5.40;;
42770;SDS011;28426;42.872;25.314;2023-07-02T10:56:16;7.67;;;5.23;;
42770;SDS011;28426;42.872;25.314;2023-07-02T10:58:49;8.40;;;5.60;;
42770;SDS011;28426;42.872;25.314;2023-07-02T11:01:24;8.20;;;5.38;;
42770;SDS011;28426;42.872;25.314;2023-07-02T11:03:57;8.13;;;5.47;;
42770;SDS011;28426;42.872;25.314;2023-07-02T11:06:29;8.32;;;5.35;;
42770;SDS011;28426;42.872;25.314;2023-07-02T11:09:01;7.50;;;5.28;;
42770;SDS011;28426;42.872;25.314;2023-07-02T11:11:31;9.10;;;5.43;;
42770;SDS011;28426;42.872;25.314;2023-07-02T11:14:05;7.40;;;5.22;;
42770;SDS011;28426;42.872;25.314;2023-07-02T11:16:36;8.57;;;5.20;;
42770;SDS011;28426;42.872;25.314;2023-07-02T11:19:08;9.93;;;5.70;;
42770;SDS011;28426;42.872;25.314;2023-07-02T11:21:49;10.90;;;5.95;;
42770;SDS011;28426;42.872;25.314;2023-07-02T11:24:26;8.20;;;5.28;;
42770;SDS011;28426;42.872;25.314;2023-07-02T11:26:58;9.75;;;5.95;;
42770;SDS011;28426;42.872;25.314;2023-07-02T11:29:33;7.43;;;5.65;;
42770;SDS011;28426;42.872;25.314;2023-07-02T11:32:06;8.00;;;5.80;;
42770;SDS011;28426;42.872;25.314;2023-07-02T11:34:37;9.80;;;5.25;;
42770;SDS011;28426;42.872;25.314;2023-07-02T11:37:09;8.65;;;5.45;;
42770;SDS011;28426;42.872;25.314;2023-07-02T11:39:40;10.20;;;6.18;;
42770;SDS011;28426;42.872;25.314;2023-07-02T11:42:13;11.43;;;6.47;;
42770;SDS011;28426;42.872;25.314;2023-07-02T11:44:47;10.98;;;6.68;;
42770;SDS011;28426;42.872;25.314;2023-07-02T11:47:18;8.88;;;5.22;;
42770;SDS011;28426;42.872;25.314;2023-07-02T11:49:48;10.00;;;6.13;;
42770;SDS011;28426;42.872;25.314;2023-07-02T11:52:19;7.15;;;5.50;;
42770;SDS011;28426;42.872;25.314;2023-07-02T11:54:50;8.18;;;5.70;;
42770;SDS011;28426;42.872;25.314;2023-07-02T11:57:21;8.38;;;6.18;;
42770;SDS011;28426;42.872;25.314;2023-07-02T11:59:55;8.18;;;5.70;;
42770;SDS011;28426;42.872;25.314;2023-07-02T12:02:26;9.57;;;5.65;;
42770;SDS011;28426;42.872;25.314;2023-07-02T12:04:57;11.15;;;5.10;;
42770;SDS011;28426;42.872;25.314;2023-07-02T12:07:32;7.00;;;5.43;;
42770;SDS011;28426;42.872;25.314;2023-07-02T12:10:05;9.15;;;5.75;;
42770;SDS011;28426;42.872;25.314;2023-07-02T12:12:37;9.60;;;6.25;;
42770;SDS011;28426;42.872;25.314;2023-07-02T12:15:11;9.70;;;6.20;;
42770;SDS011;28426;42.872;25.314;2023-07-02T12:17:41;11.50;;;5.97;;
42770;SDS011;28426;42.872;25.314;2023-07-02T12:20:12;9.32;;;6.72;;
42770;SDS011;28426;42.872;25.314;2023-07-02T12:22:43;9.43;;;6.57;;
42770;SDS011;28426;42.872;25.314;2023-07-02T12:25:14;9.60;;;6.85;;
42770;SDS011;28426;42.872;25.314;2023-07-02T12:27:45;11.77;;;6.78;;
42770;SDS011;28426;42.872;25.314;2023-07-02T12:30:19;8.95;;;6.53;;
42770;SDS011;28426;42.872;25.314;2023-07-02T12:32:50;11.68;;;6.78;;
42770;SDS011;28426;42.872;25.314;2023-07-02T12:35:21;10.18;;;6.22;;
42770;SDS011;28426;42.872;25.314;2023-07-02T12:37:52;11.43;;;6.85;;
42770;SDS011;28426;42.872;25.314;2023-07-02T12:40:23;9.68;;;6.32;;
42770;SDS011;28426;42.872;25.314;2023-07-02T12:42:54;10.32;;;7.07;;
42770;SDS011;28426;42.872;25.314;2023-07-02T12:45:27;10.20;;;7.05;;
42770;SDS011;28426;42.872;25.314;2023-07-02T12:47:59;11.65;;;7.15;;
42770;SDS011;28426;42.872;25.314;2023-07-02T12:50:30;10.98;;;7.35;;
42770;SDS011;28426;42.872;25.314;2023-07-02T12:53:00;11.32;;;7.65;;
42770;SDS011;28426;42.872;25.314;2023-07-02T12:55:31;12.77;;;7.38;;
42770;SDS011;28426;42.872;25.314;2023-07-02T12:58:02;10.77;;;8.02;;
42770;SDS011;28426;42.872;25.314;2023-07-02T13:00:36;10.25;;;7.63;;
42770;SDS011;28426;42.872;25.314;2023-07-02T13:03:11;11.25;;;7.40;;
42770;SDS011;28426;42.872;25.314;2023-07-02T13:05:47;10.27;;;6.90;;
42770;SDS011;28426;42.872;25.314;2023-07-02T13:08:18;9.75;;;7.05;;
42770;SDS011;28426;42.872;25.314;2023-07-02T13:10:49;10.25;;;6.70;;
42770;SDS011;28426;42.872;25.314;2023-07-02T13:13:20;10.77;;;7.25;;
42770;SDS011;28426;42.872;25.314;2023-07-02T13:15:56;11.02;;;6.88;;
42770;SDS011;28426;42.872;25.314;2023-07-02T13:18:27;12.23;;;7.43;;
42770;SDS011;28426;42.872;25.314;2023-07-02T13:20:58;10.05;;;6.30;;
42770;SDS011;28426;42.872;25.314;2023-07-02T13:23:29;8.70;;;6.03;;
42770;SDS011;28426;42.872;25.314;2023-07-02T13:26:00;9.38;;;6.28;;
42770;SDS011;28426;42.872;25.314;2023-07-02T13:28:31;11.40;;;5.68;;
42770;SDS011;28426;42.872;25.314;2023-07-02T13:31:04;8.25;;;5.43;;
42770;SDS011;28426;42.872;25.314;2023-07-02T13:33:37;9.35;;;5.88;;
42770;SDS011;28426;42.872;25.314;2023-07-02T13:36:08;9.15;;;6.25;;
42770;SDS011;28426;42.872;25.314;2023-07-02T13:38:39;13.57;;;6.28;;
42770;SDS011;28426;42.872;25.314;2023-07-02T13:41:10;9.90;;;6.50;;
42770;SDS011;28426;42.872;25.314;2023-07-02T13:43:41;10.20;;;5.97;;
42770;SDS011;28426;42.872;25.314;2023-07-02T13:46:15;8.60;;;6.18;;
42770;SDS011;28426;42.872;25.314;2023-07-02T13:48:46;8.40;;;5.85;;
42770;SDS011;28426;42.872;25.314;2023-07-02T13:51:18;10.65;;;5.75;;
42770;SDS011;28426;42.872;25.314;2023-07-02T13:53:49;9.80;;;5.95;;
42770;SDS011;28426;42.872;25.314;2023-07-02T13:56:20;9.05;;;5.35;;
42770;SDS011;28426;42.872;25.314;2023-07-02T13:59:03;7.80;;;5.40;;
42770;SDS011;28426;42.872;25.314;2023-07-02T14:01:35;7.93;;;5.30;;
42770;SDS011;28426;42.872;25.314;2023-07-02T14:04:06;9.63;;;5.07;;
42770;SDS011;28426;42.872;25.314;2023-07-02T14:06:36;6.65;;;4.70;;
42770;SDS011;28426;42.872;25.314;2023-07-02T14:09:08;8.75;;;4.78;;
42770;SDS011;28426;42.872;25.314;2023-07-02T14:11:39;6.53;;;4.80;;
42770;SDS011;28426;42.872;25.314;2023-07-02T14:14:14;10.13;;;4.80;;
42770;SDS011;28426;42.872;25.314;2023-07-02T14:16:44;7.72;;;4.80;;
42770;SDS011;28426;42.872;25.314;2023-07-02T14:19:15;10.23;;;5.25;;
42770;SDS011;28426;42.872;25.314;2023-07-02T14:21:46;9.30;;;5.10;;
42770;SDS011;28426;42.872;25.314;2023-07-02T14:24:17;9.10;;;5.72;;
42770;SDS011;28426;42.872;25.314;2023-07-02T14:26:48;8.50;;;5.60;;
42770;SDS011;28426;42.872;25.314;2023-07-02T14:29:21;8.15;;;5.15;;
42770;SDS011;28426;42.872;25.314;2023-07-02T14:31:54;9.35;;;5.10;;
42770;SDS011;28426;42.872;25.314;2023-07-02T14:34:25;8.55;;;5.78;;
42770;SDS011;28426;42.872;25.314;2023-07-02T14:36:56;9.02;;;5.45;;
42770;SDS011;28426;42.872;25.314;2023-07-02T14:39:28;7.22;;;5.25;;
42770;SDS011;28426;42.872;25.314;2023-07-02T14:41:58;7.60;;;4.90;;
42770;SDS011;28426;42.872;25.314;2023-07-02T14:44:32;8.00;;;4.75;;
42770;SDS011;28426;42.872;25.314;2023-07-02T14:47:03;8.40;;;4.88;;
42770;SDS011;28426;42.872;25.314;2023-07-02T14:49:35;8.00;;;4.85;;
42770;SDS011;28426;42.872;25.314;2023-07-02T14:52:07;9.18;;;5.30;;
42770;SDS011;28426;42.872;25.314;2023-07-02T14:54:39;8.18;;;5.30;;
42770;SDS011;28426;42.872;25.314;2023-07-02T14:57:10;7.32;;;5.20;;
42770;SDS011;28426;42.872;25.314;2023-07-02T14:59:47;7.97;;;5.38;;
42770;SDS011;28426;42.872;25.314;2023-07-02T15:02:18;7.97;;;5.20;;
42770;SDS011;28426;42.872;25.314;2023-07-02T15:04:49;12.18;;;4.93;;
42770;SDS011;28426;42.872;25.314;2023-07-02T15:07:21;8.93;;;5.10;;
42770;SDS011;28426;42.872;25.314;2023-07-02T15:09:52;9.77;;;5.38;;
42770;SDS011;28426;42.872;25.314;2023-07-02T15:12:23;9.13;;;5.15;;